Time;durP1;ratioP1;P1;durP2;ratioP2;P2;SDS_P1;SDS_P2;PMS_P1;PMS_P2;Temp;Humidity;BMP_temperature;BMP_pressure;BME280_temperature;BME280_humidity;BME280_pressure;Samples;Min_cycle;Max_cycle;Signal;HPM_P1;HPM_P2
2021/05/05 00:01:52;;;;;;;0.00;0.00;;;11.30;99.90;;;;;;5071684;28;20032;-83
2021/05/05 00:04:19;;;;;;;0.00;0.00;;;11.30;99.90;;;;;;5086070;28;20032;-83
2021/05/05 00:06:45;;;;;;;0.05;0.05;;;11.30;99.90;;;;;;5088868;28;20063;-83
2021/05/05 00:09:11;;;;;;;0.00;0.00;;;11.40;99.90;;;;;;5085782;28;20055;-81
2021/05/05 00:11:37;;;;;;;0.10;0.10;;;11.40;99.90;;;;;;5075659;28;20032;-82
2021/05/05 00:14:04;;;;;;;0.10;0.10;;;11.40;99.90;;;;;;5083424;28;20086;-82
2021/05/05 00:16:30;;;;;;;;;;;11.30;99.90;;;;;;5073863;28;20021;-82
2021/05/05 00:18:56;;;;;;;0.65;0.47;;;11.40;99.90;;;;;;5068288;28;19909;-82
2021/05/05 00:21:22;;;;;;;0.00;0.00;;;11.30;99.90;;;;;;5068537;28;20051;-82
2021/05/05 00:23:49;;;;;;;0.10;0.10;;;11.30;99.90;;;;;;5078237;28;20100;-82
2021/05/05 00:26:15;;;;;;;0.00;0.00;;;11.40;99.90;;;;;;5083907;28;20016;-82
2021/05/05 00:28:41;;;;;;;0.13;0.13;;;11.40;99.90;;;;;;5081815;28;20070;-82
2021/05/05 00:31:07;;;;;;;0.10;0.10;;;11.40;99.90;;;;;;5074623;28;20036;-82
2021/05/05 00:33:33;;;;;;;0.00;0.00;;;11.40;99.90;;;;;;5076593;28;20488;-82
2021/05/05 00:35:59;;;;;;;0.07;0.07;;;11.30;99.90;;;;;;5076845;28;20028;-82
2021/05/05 00:38:25;;;;;;;0.00;0.00;;;11.40;99.90;;;;;;5076769;28;20023;-82
2021/05/05 00:40:50;;;;;;;0.00;0.00;;;11.40;99.90;;;;;;5067113;28;20488;-82
2021/05/05 00:43:16;;;;;;;0.00;0.00;;;11.30;99.90;;;;;;5084988;28;20756;-83
2021/05/05 00:45:42;;;;;;;3.65;0.80;;;11.30;99.90;;;;;;5078268;28;20039;-83
2021/05/05 00:48:08;;;;;;;0.25;0.15;;;11.20;99.90;;;;;;5071920;28;20025;-83
2021/05/05 00:50:34;;;;;;;3.90;1.85;;;11.30;99.90;;;;;;5071331;28;20032;-83
2021/05/05 00:52:59;;;;;;;0.00;0.00;;;11.40;99.90;;;;;;5079576;28;20768;-83
2021/05/05 00:55:25;;;;;;;0.05;0.05;;;11.40;99.90;;;;;;5087619;28;20032;-83
2021/05/05 00:57:51;;;;;;;0.10;0.10;;;11.30;99.90;;;;;;5078417;28;20111;-83
2021/05/05 01:00:19;;;;;;;0.30;0.30;;;11.40;99.90;;;;;;5076116;28;20032;-83
2021/05/05 01:02:45;;;;;;;0.00;0.00;;;11.50;99.90;;;;;;5054385;28;20024;-83
2021/05/05 01:05:12;;;;;;;0.25;0.25;;;11.40;99.90;;;;;;5061431;28;20044;-83
2021/05/05 01:07:38;;;;;;;0.20;0.20;;;11.40;99.90;;;;;;5088849;28;20064;-83
2021/05/05 01:10:10;;;;;;;0.00;0.00;;;11.60;99.90;;;;;;5087325;28;20477;-83
2021/05/05 01:12:36;;;;;;;0.00;0.00;;;11.50;99.90;;;;;;5087574;28;20028;-83
2021/05/05 01:15:01;;;;;;;0.00;0.00;;;11.50;99.90;;;;;;5086159;28;20059;-83
2021/05/05 01:17:29;;;;;;;0.00;0.00;;;11.50;99.90;;;;;;5071635;28;20025;-82
2021/05/05 01:19:54;;;;;;;0.00;0.00;;;11.50;99.90;;;;;;5085533;28;20033;-83
2021/05/05 01:22:20;;;;;;;0.15;0.15;;;11.50;99.90;;;;;;5074784;28;20086;-83
2021/05/05 01:24:46;;;;;;;0.15;0.15;;;11.50;99.90;;;;;;5081810;28;20135;-82
2021/05/05 01:27:12;;;;;;;0.00;0.00;;;11.50;99.90;;;;;;5082908;28;20036;-82
2021/05/05 01:29:38;;;;;;;2.63;0.57;;;11.60;99.90;;;;;;5078048;28;20040;-82
2021/05/05 01:32:05;;;;;;;0.10;0.10;;;11.50;99.90;;;;;;5079941;28;20024;-82
2021/05/05 01:34:34;;;;;;;;;;;11.50;99.90;;;;;;5072154;28;20040;-82
2021/05/05 01:37:00;;;;;;;0.00;0.00;;;11.50;99.90;;;;;;5070600;28;19935;-82
2021/05/05 01:39:26;;;;;;;0.52;0.52;;;11.50;99.90;;;;;;5084263;28;20017;-82
2021/05/05 01:41:52;;;;;;;0.08;0.08;;;11.60;99.90;;;;;;5076072;28;20036;-81
2021/05/05 01:44:30;;;;;;;0.52;0.45;;;11.50;99.90;;;;;;5072955;28;20151;-82
2021/05/05 01:46:56;;;;;;;0.50;0.50;;;11.60;99.90;;;;;;5076242;28;20024;-82
2021/05/05 01:49:24;;;;;;;0.10;0.10;;;11.60;99.90;;;;;;5070158;28;20473;-82
2021/05/05 01:51:53;;;;;;;0.10;0.10;;;11.60;99.90;;;;;;5088995;28;20115;-82
2021/05/05 01:54:19;;;;;;;0.20;0.20;;;11.60;99.90;;;;;;5071228;28;20040;-82
2021/05/05 01:56:44;;;;;;;0.00;0.00;;;11.60;99.90;;;;;;5059007;28;20025;-82
2021/05/05 01:59:10;;;;;;;0.00;0.00;;;11.60;99.90;;;;;;5068477;28;20028;-83
2021/05/05 02:01:36;;;;;;;0.00;0.00;;;11.60;99.90;;;;;;5056589;28;20107;-83
2021/05/05 02:04:03;;;;;;;0.00;0.00;;;11.60;99.90;;;;;;5048926;28;20021;-83
2021/05/05 02:06:30;;;;;;;0.00;0.00;;;11.70;99.90;;;;;;5048587;28;20029;-83
2021/05/05 02:08:57;;;;;;;0.10;0.10;;;11.60;99.90;;;;;;5075789;28;20742;-83
2021/05/05 02:11:24;;;;;;;0.00;0.00;;;11.70;99.90;;;;;;5081206;28;20032;-83
2021/05/05 02:13:50;;;;;;;0.32;0.32;;;11.60;99.90;;;;;;5053756;28;21425;-83
2021/05/05 02:16:15;;;;;;;0.10;0.10;;;11.60;99.90;;;;;;5088658;28;20032;-82
2021/05/05 02:18:41;;;;;;;1.95;1.08;;;11.70;99.90;;;;;;5087710;28;20392;-82
2021/05/05 02:21:07;;;;;;;0.10;0.10;;;11.70;99.90;;;;;;5074426;28;20438;-83
2021/05/05 02:23:33;;;;;;;0.00;0.00;;;11.70;99.90;;;;;;5062103;28;20037;-82
2021/05/05 02:26:00;;;;;;;0.10;0.10;;;11.70;99.90;;;;;;5073627;28;20084;-82
2021/05/05 02:28:26;;;;;;;0.00;0.00;;;11.70;99.90;;;;;;5077344;28;20036;-83
2021/05/05 02:30:52;;;;;;;0.00;0.00;;;11.60;99.90;;;;;;5071681;28;20511;-83
2021/05/05 02:33:18;;;;;;;0.00;0.00;;;11.70;99.90;;;;;;5069331;28;20077;-82
2021/05/05 02:35:44;;;;;;;0.00;0.00;;;11.70;99.90;;;;;;5069373;28;20028;-82
2021/05/05 02:38:09;;;;;;;0.00;0.00;;;11.70;99.90;;;;;;5080300;28;20108;-82
2021/05/05 02:40:37;;;;;;;0.35;0.30;;;11.70;99.90;;;;;;5088844;28;20066;-82
2021/05/05 02:43:03;;;;;;;0.00;0.00;;;11.70;99.90;;;;;;5081741;28;20415;-83
2021/05/05 02:45:30;;;;;;;0.00;0.00;;;11.70;99.90;;;;;;5083582;28;20119;-83
2021/05/05 02:47:55;;;;;;;0.00;0.00;;;11.80;99.90;;;;;;5088726;28;20032;-83
2021/05/05 02:50:21;;;;;;;0.00;0.00;;;11.90;99.90;;;;;;5075018;28;20031;-83
2021/05/05 02:52:47;;;;;;;0.08;0.08;;;12.10;99.90;;;;;;5062713;28;20072;-83
2021/05/05 02:55:13;;;;;;;0.10;0.10;;;12.20;99.90;;;;;;5066075;28;20036;-82
2021/05/05 02:57:39;;;;;;;0.00;0.00;;;13.70;99.90;;;;;;5083272;28;20106;-82
2021/05/05 03:00:07;;;;;;;0.00;0.00;;;13.90;99.90;;;;;;5086389;28;20024;-82
2021/05/05 03:02:33;;;;;;;0.00;0.00;;;14.30;99.90;;;;;;5081045;28;20479;-83
2021/05/05 03:04:58;;;;;;;0.00;0.00;;;14.50;99.90;;;;;;5081589;28;20131;-83
2021/05/05 03:07:24;;;;;;;0.10;0.10;;;14.40;99.90;;;;;;5079176;28;20566;-83
2021/05/05 03:09:50;;;;;;;0.00;0.00;;;14.40;99.90;;;;;;5076691;28;20802;-82
2021/05/05 03:12:16;;;;;;;0.00;0.00;;;14.30;99.90;;;;;;5079282;28;20059;-83
2021/05/05 03:14:42;;;;;;;0.30;0.17;;;14.20;99.90;;;;;;5078968;28;20055;-82
2021/05/05 03:17:08;;;;;;;0.00;0.00;;;14.10;99.90;;;;;;5087721;28;20039;-82
2021/05/05 03:19:33;;;;;;;0.00;0.00;;;13.90;99.90;;;;;;5087256;28;20031;-81
2021/05/05 03:22:00;;;;;;;0.10;0.10;;;13.70;99.90;;;;;;5072962;28;20063;-83
2021/05/05 03:24:26;;;;;;;0.10;0.10;;;13.70;99.90;;;;;;5073213;28;20651;-83
2021/05/05 03:26:51;;;;;;;0.00;0.00;;;13.50;99.90;;;;;;5077846;28;20046;-82
2021/05/05 03:29:17;;;;;;;0.00;0.00;;;13.30;99.90;;;;;;5071986;28;20476;-82
2021/05/05 03:31:43;;;;;;;0.00;0.00;;;13.20;99.90;;;;;;5052549;28;20025;-81
2021/05/05 03:34:09;;;;;;;0.00;0.00;;;13.10;99.90;;;;;;5087095;28;20025;-82
2021/05/05 03:36:35;;;;;;;0.00;0.00;;;13.00;99.90;;;;;;5087622;28;20048;-82
2021/05/05 03:39:03;;;;;;;0.00;0.00;;;13.10;99.90;;;;;;5076070;28;20634;-82
2021/05/05 03:41:29;;;;;;;;;;;13.10;99.90;;;;;;5082389;28;20059;-82
2021/05/05 03:43:55;;;;;;;0.00;0.00;;;13.00;99.90;;;;;;5084239;28;20367;-82
2021/05/05 03:46:21;;;;;;;0.00;0.00;;;12.90;99.90;;;;;;5070767;28;20046;-82
2021/05/05 03:48:47;;;;;;;0.00;0.00;;;12.80;99.90;;;;;;5078463;28;20020;-82
2021/05/05 03:51:13;;;;;;;0.00;0.00;;;12.80;99.90;;;;;;5080366;28;20032;-82
2021/05/05 03:53:38;;;;;;;0.10;0.10;;;12.70;99.90;;;;;;5064595;28;20108;-82
2021/05/05 03:56:04;;;;;;;0.00;0.00;;;12.80;99.90;;;;;;5077851;28;20032;-82
2021/05/05 03:58:30;;;;;;;0.00;0.00;;;12.70;99.90;;;;;;5077456;28;20025;-82
2021/05/05 04:00:56;;;;;;;0.00;0.00;;;12.60;99.90;;;;;;5075507;28;20040;-82
2021/05/05 04:03:22;;;;;;;0.00;0.00;;;12.50;99.90;;;;;;5072126;28;20028;-82
2021/05/05 04:05:47;;;;;;;0.00;0.00;;;12.60;99.90;;;;;;5060161;28;20033;-82
2021/05/05 04:08:13;;;;;;;0.00;0.00;;;12.70;99.90;;;;;;5069358;28;20052;-82
2021/05/05 04:10:39;;;;;;;0.10;0.10;;;12.70;99.90;;;;;;5091545;28;20032;-82
2021/05/05 04:13:05;;;;;;;0.00;0.00;;;12.70;99.90;;;;;;5083212;28;20024;-80
2021/05/05 04:15:31;;;;;;;0.20;0.20;;;12.60;99.90;;;;;;5071751;28;20021;-80
2021/05/05 04:17:57;;;;;;;0.15;0.10;;;12.60;99.90;;;;;;5085687;28;20056;-80
2021/05/05 04:20:23;;;;;;;0.07;0.07;;;12.60;99.90;;;;;;5082099;28;20463;-80
2021/05/05 04:22:49;;;;;;;0.00;0.00;;;12.40;99.90;;;;;;5081671;28;20315;-80
2021/05/05 04:25:17;;;;;;;0.00;0.00;;;12.40;99.90;;;;;;5081173;28;20023;-80
2021/05/05 04:27:43;;;;;;;0.08;0.08;;;12.30;99.90;;;;;;5074310;28;20032;-79
2021/05/05 04:30:13;;;;;;;0.00;0.00;;;12.30;99.90;;;;;;5089000;28;20760;-79
2021/05/05 04:32:40;;;;;;;0.00;0.00;;;12.20;99.90;;;;;;5084594;28;20050;-79
2021/05/05 04:35:07;;;;;;;0.00;0.00;;;12.30;99.90;;;;;;5066260;28;20024;-80
2021/05/05 04:37:34;;;;;;;0.00;0.00;;;12.20;99.90;;;;;;5082164;28;20028;-80
2021/05/05 04:40:01;;;;;;;0.00;0.00;;;12.30;99.90;;;;;;5085701;28;20067;-81
2021/05/05 04:42:27;;;;;;;;;;;12.20;99.90;;;;;;5084624;28;20024;-82
2021/05/05 04:44:53;;;;;;;0.00;0.00;;;12.30;99.90;;;;;;5081503;28;19912;-81
2021/05/05 04:47:19;;;;;;;0.20;0.20;;;12.20;99.90;;;;;;5071994;28;20090;-82
2021/05/05 04:49:45;;;;;;;0.00;0.00;;;12.10;99.90;;;;;;5071758;28;20028;-82
2021/05/05 04:52:11;;;;;;;0.00;0.00;;;12.10;99.90;;;;;;5081996;28;20458;-82
2021/05/05 04:54:37;;;;;;;0.00;0.00;;;12.20;99.90;;;;;;5091517;28;20020;-82
2021/05/05 04:57:03;;;;;;;0.00;0.00;;;12.10;99.90;;;;;;5091869;28;20051;-81
2021/05/05 04:59:28;;;;;;;0.20;0.20;;;11.90;99.90;;;;;;5072100;28;20060;-83
2021/05/05 05:01:54;;;;;;;0.10;0.10;;;11.80;99.90;;;;;;5075873;28;20040;-83
2021/05/05 05:04:20;;;;;;;0.00;0.00;;;11.80;99.90;;;;;;5091288;28;20047;-84
2021/05/05 05:06:45;;;;;;;0.10;0.10;;;11.70;99.90;;;;;;5090238;28;20043;-83
2021/05/05 05:09:11;;;;;;;0.08;0.08;;;11.60;99.90;;;;;;5089087;28;20694;-84
2021/05/05 05:11:37;;;;;;;0.00;0.00;;;11.70;99.90;;;;;;5062419;28;20079;-82
2021/05/05 05:14:03;;;;;;;0.00;0.00;;;11.60;99.90;;;;;;5074287;28;20033;-80
2021/05/05 05:16:29;;;;;;;0.17;0.17;;;11.60;99.90;;;;;;5065780;28;20079;-82
2021/05/05 05:18:54;;;;;;;0.10;0.10;;;11.70;99.90;;;;;;5064869;28;20032;-84
2021/05/05 05:21:20;;;;;;;0.63;0.63;;;11.70;99.90;;;;;;5061506;28;20043;-83
2021/05/05 05:23:46;;;;;;;0.00;0.00;;;11.90;99.90;;;;;;5056153;28;20025;-83
2021/05/05 05:26:12;;;;;;;0.10;0.10;;;11.90;99.90;;;;;;5054467;28;20036;-83
2021/05/05 05:28:37;;;;;;;0.00;0.00;;;11.80;99.90;;;;;;5060367;28;20035;-82
2021/05/05 05:31:03;;;;;;;0.08;0.08;;;11.70;99.90;;;;;;5070137;28;20040;-81
2021/05/05 05:33:29;;;;;;;0.00;0.00;;;11.80;99.90;;;;;;5082815;28;20399;-82
2021/05/05 05:35:55;;;;;;;0.10;0.10;;;11.80;99.90;;;;;;5070862;28;20024;-82
2021/05/05 05:38:21;;;;;;;0.00;0.00;;;11.80;99.90;;;;;;5075507;28;20032;-83
2021/05/05 05:40:47;;;;;;;0.00;0.00;;;11.80;99.90;;;;;;5076172;28;20233;-83
2021/05/05 05:43:13;;;;;;;0.10;0.10;;;11.90;99.90;;;;;;5080020;28;20032;-82
2021/05/05 05:45:38;;;;;;;0.52;0.52;;;11.90;99.90;;;;;;5079496;28;20081;-82
2021/05/05 05:48:05;;;;;;;0.47;0.47;;;11.90;99.90;;;;;;5067302;28;20028;-82
2021/05/05 05:50:31;;;;;;;0.10;0.10;;;11.80;99.90;;;;;;5064627;28;20099;-80
2021/05/05 05:52:57;;;;;;;0.08;0.08;;;11.80;99.90;;;;;;5085355;28;20112;-81
2021/05/05 05:55:25;;;;;;;0.10;0.10;;;11.80;99.90;;;;;;5088655;28;20035;-81
2021/05/05 05:57:52;;;;;;;0.10;0.10;;;11.80;99.90;;;;;;5090160;28;20019;-81
2021/05/05 06:00:19;;;;;;;0.00;0.00;;;11.90;99.90;;;;;;5083842;28;20498;-81
2021/05/05 06:02:45;;;;;;;0.00;0.00;;;11.90;99.90;;;;;;5070040;28;20056;-82
2021/05/05 06:05:12;;;;;;;0.20;0.20;;;11.80;99.90;;;;;;5070213;28;20761;-82
2021/05/05 06:07:38;;;;;;;0.28;0.28;;;11.90;99.90;;;;;;5089997;28;20631;-82
2021/05/05 06:10:06;;;;;;;0.10;0.10;;;11.90;99.90;;;;;;5090268;28;20560;-82
2021/05/05 06:12:31;;;;;;;0.00;0.00;;;11.80;99.90;;;;;;5086744;28;20028;-82
2021/05/05 06:14:58;;;;;;;0.52;0.52;;;11.60;99.90;;;;;;5075375;28;20031;-82
2021/05/05 06:17:24;;;;;;;0.63;0.63;;;11.60;99.90;;;;;;5069849;28;20051;-81
2021/05/05 06:19:50;;;;;;;0.13;0.13;;;11.70;99.90;;;;;;5069687;28;20028;-81
2021/05/05 06:22:16;;;;;;;0.10;0.10;;;11.70;99.90;;;;;;5068537;28;20029;-81
2021/05/05 06:24:43;;;;;;;0.10;0.10;;;11.90;99.90;;;;;;5069810;28;20078;-81
2021/05/05 06:27:09;;;;;;;0.60;0.28;;;12.10;99.90;;;;;;5084412;28;20451;-81
2021/05/05 06:29:35;;;;;;;1.00;1.00;;;12.20;99.90;;;;;;5071819;28;20116;-81
2021/05/05 06:32:01;;;;;;;0.30;0.30;;;12.50;99.90;;;;;;5073896;28;20131;-80
2021/05/05 06:34:27;;;;;;;0.30;0.30;;;12.70;99.90;;;;;;5088885;28;20035;-80
2021/05/05 06:36:53;;;;;;;0.20;0.20;;;12.90;99.90;;;;;;5086272;28;20032;-80
2021/05/05 06:39:19;;;;;;;0.30;0.30;;;12.80;99.90;;;;;;5078589;28;20032;-81
2021/05/05 06:41:44;;;;;;;0.10;0.10;;;13.00;99.90;;;;;;5076664;28;20038;-80
2021/05/05 06:44:10;;;;;;;0.20;0.20;;;13.00;99.90;;;;;;5075124;28;20099;-80
2021/05/05 06:46:42;;;;;;;0.13;0.13;;;13.00;99.90;;;;;;5067449;28;20107;-80
2021/05/05 06:49:12;;;;;;;0.68;0.57;;;12.60;99.90;;;;;;5069275;28;20103;-79
2021/05/05 06:51:39;;;;;;;1.63;0.85;;;12.60;99.90;;;;;;5068482;28;20082;-80
2021/05/05 06:54:06;;;;;;;0.22;0.22;;;12.30;99.90;;;;;;5069043;28;20036;-80
2021/05/05 06:56:32;;;;;;;0.22;0.22;;;12.30;99.90;;;;;;5068879;28;20025;-79
2021/05/05 06:58:58;;;;;;;0.55;0.28;;;12.20;99.90;;;;;;5068083;28;20093;-80
2021/05/05 07:01:24;;;;;;;0.65;0.65;;;12.20;99.90;;;;;;5068916;28;20488;-79
2021/05/05 07:03:49;;;;;;;0.52;0.52;;;12.30;99.90;;;;;;5068757;28;20064;-79
2021/05/05 07:06:15;;;;;;;0.47;0.47;;;12.30;99.90;;;;;;5069075;28;20086;-80
2021/05/05 07:08:41;;;;;;;1.02;1.02;;;12.20;99.90;;;;;;5068462;28;20135;-79
2021/05/05 07:11:07;;;;;;;1.00;0.55;;;12.60;99.90;;;;;;5068208;28;20036;-80
2021/05/05 07:13:33;;;;;;;0.30;0.30;;;12.80;99.90;;;;;;5067424;28;20028;-80
2021/05/05 07:15:59;;;;;;;2.75;1.70;;;13.60;99.90;;;;;;5068417;28;20743;-80
2021/05/05 07:18:25;;;;;;;0.32;0.32;;;13.30;99.90;;;;;;5068278;28;20107;-80
2021/05/05 07:20:51;;;;;;;0.10;0.10;;;14.40;99.90;;;;;;5068236;28;20047;-80
2021/05/05 07:23:17;;;;;;;0.10;0.10;;;13.50;99.90;;;;;;5068355;28;20458;-80
2021/05/05 07:25:43;;;;;;;1.90;0.73;;;13.00;99.90;;;;;;5068577;28;20032;-80
2021/05/05 07:28:09;;;;;;;0.75;0.52;;;12.90;99.90;;;;;;5068193;28;20918;-79
2021/05/05 07:30:35;;;;;;;0.35;0.35;;;12.80;99.90;;;;;;5068230;28;20103;-80
2021/05/05 07:33:01;;;;;;;0.25;0.22;;;12.90;99.90;;;;;;5067657;28;20095;-79
2021/05/05 07:35:27;;;;;;;0.47;0.47;;;13.50;99.90;;;;;;5068422;28;20029;-79
2021/05/05 07:45:43;;;;;;;0.50;0.50;;;19.40;99.90;;;;;;5068105;28;20123;-80
2021/05/05 07:48:28;;;;;;;;;;;18.00;99.90;;;;;;5068141;28;20028;-80
2021/05/05 07:50:56;;;;;;;1.30;0.45;;;18.90;99.90;;;;;;5066787;28;20604;-80
2021/05/05 07:53:21;;;;;;;0.32;0.32;;;20.60;99.90;;;;;;5067489;28;20035;-80
2021/05/05 07:55:47;;;;;;;0.67;0.67;;;21.80;99.90;;;;;;5066334;28;20032;-81
2021/05/05 07:58:13;;;;;;;1.88;1.33;;;19.20;99.90;;;;;;5067057;28;20056;-81
2021/05/05 08:00:39;;;;;;;0.30;0.30;;;19.10;99.90;;;;;;5067466;28;20063;-81
2021/05/05 08:03:06;;;;;;;0.00;0.00;;;19.90;99.90;;;;;;5067472;28;20029;-81
2021/05/05 08:05:31;;;;;;;0.10;0.10;;;22.50;99.90;;;;;;5067254;28;20681;-81
2021/05/05 08:07:57;;;;;;;0.07;0.07;;;23.70;99.90;;;;;;5067572;28;20133;-81
2021/05/05 08:10:23;;;;;;;0.23;0.23;;;21.60;99.90;;;;;;5065784;28;20291;-81
2021/05/05 08:12:49;;;;;;;0.10;0.10;;;23.30;99.90;;;;;;5067303;28;20021;-81
2021/05/05 08:15:15;;;;;;;0.20;0.10;;;20.80;99.90;;;;;;5065722;28;20813;-80
2021/05/05 08:17:41;;;;;;;2.17;0.20;;;19.90;99.90;;;;;;5067113;28;20615;-80
2021/05/05 08:20:08;;;;;;;0.30;0.30;;;18.50;99.90;;;;;;5067452;28;20071;-80
2021/05/05 08:22:34;;;;;;;0.00;0.00;;;19.30;99.90;;;;;;5065901;28;20028;-80
2021/05/05 08:25:00;;;;;;;;;;;18.40;99.90;;;;;;5068193;28;20029;-80
2021/05/05 08:27:26;;;;;;;0.10;0.10;;;18.20;99.90;;;;;;5066187;28;19912;-80
2021/05/05 08:29:54;;;;;;;0.10;0.10;;;17.70;99.90;;;;;;5067435;28;20573;-80
2021/05/05 08:32:21;;;;;;;0.10;0.10;;;18.10;99.90;;;;;;5067635;28;20266;-80
2021/05/05 08:34:47;;;;;;;0.00;0.00;;;19.50;99.90;;;;;;5067490;28;20032;-80
2021/05/05 08:37:13;;;;;;;0.00;0.00;;;20.50;99.90;;;;;;5067111;28;20032;-80
2021/05/05 08:39:39;;;;;;;0.00;0.00;;;16.70;99.90;;;;;;5067467;28;20025;-80
2021/05/05 08:42:05;;;;;;;0.00;0.00;;;15.10;99.90;;;;;;5066150;28;20039;-80
2021/05/05 08:44:32;;;;;;;0.00;0.00;;;13.70;99.90;;;;;;5067471;28;20419;-79
2021/05/05 08:46:58;;;;;;;;;;;14.10;99.90;;;;;;5071560;28;20255;-80
2021/05/05 08:49:24;;;;;;;0.20;0.20;;;13.40;99.90;;;;;;5070421;28;19911;-80
2021/05/05 08:51:50;;;;;;;1.55;1.17;;;12.90;99.90;;;;;;5070899;28;20423;-80
2021/05/05 08:54:16;;;;;;;0.38;0.38;;;12.70;99.90;;;;;;5070197;28;20396;-80
2021/05/05 08:56:42;;;;;;;0.57;0.57;;;13.30;99.90;;;;;;5070491;28;20028;-80
2021/05/05 08:59:11;;;;;;;7.28;0.68;;;14.20;99.90;;;;;;5070252;28;20032;-80
2021/05/05 09:01:37;;;;;;;0.17;0.17;;;20.00;1.00;;;;;;5054638;28;20028;-80
2021/05/05 09:04:05;;;;;;;1.65;0.38;;;21.80;99.90;;;;;;5049787;28;20067;-80
2021/05/05 09:06:53;;;;;;;0.30;0.30;;;25.60;99.90;;;;;;5049698;28;20061;-80
2021/05/05 09:09:31;;;;;;;0.00;0.00;;;23.90;99.90;;;;;;5049539;28;20072;-81
2021/05/05 09:11:58;;;;;;;0.22;0.22;;;18.70;99.90;;;;;;5050330;28;20033;-80
2021/05/05 09:14:27;;;;;;;0.00;0.00;;;15.80;99.90;;;;;;5050641;28;20672;-80
2021/05/05 09:16:53;;;;;;;0.40;0.35;;;15.20;99.90;;;;;;5050118;28;20104;-80
2021/05/05 09:19:18;;;;;;;11.97;0.77;;;14.50;99.90;;;;;;5050373;28;20166;-80
2021/05/05 09:21:51;;;;;;;1.00;0.87;;;16.20;99.90;;;;;;5050251;28;20156;-80
2021/05/05 09:24:29;;;;;;;0.10;0.10;;;23.30;99.90;;;;;;5050192;28;20393;-81
2021/05/05 09:26:57;;;;;;;0.45;0.43;;;23.60;99.90;;;;;;5049977;28;20048;-80
2021/05/05 09:29:48;;;;;;;0.00;0.00;;;27.00;99.90;;;;;;5050169;28;20018;-81
2021/05/05 09:32:16;;;;;;;0.30;0.30;;;22.10;99.90;;;;;;5049656;28;20032;-81
2021/05/05 09:34:42;;;;;;;0.25;0.25;;;24.40;99.90;;;;;;5049752;28;20110;-81
2021/05/05 09:37:10;;;;;;;;;;;23.60;99.90;;;;;;5048648;28;20367;-81
2021/05/05 09:39:38;;;;;;;0.10;0.10;;;23.80;99.90;;;;;;5048868;28;19912;-81
2021/05/05 09:42:18;;;;;;;0.05;0.05;;;25.50;99.90;;;;;;5049986;28;20063;-81
2021/05/05 09:45:06;;;;;;;0.00;0.00;;;22.80;99.90;;;;;;5049430;28;20554;-81
2021/05/05 09:47:56;;;;;;;1.13;0.65;;;24.40;99.90;;;;;;5049337;28;20075;-81
2021/05/05 09:50:42;;;;;;;0.70;0.65;;;25.10;99.90;;;;;;5059457;28;20059;-81
2021/05/05 09:53:21;;;;;;;0.10;0.10;;;18.90;99.90;;;;;;5069527;28;20504;-80
2021/05/05 09:55:59;;;;;;;0.00;0.00;;;17.00;99.90;;;;;;5069306;28;20024;-80
2021/05/05 09:58:35;;;;;;;0.08;0.03;;;15.30;99.90;;;;;;5069684;28;20035;-80
2021/05/05 10:01:04;;;;;;;;;;;15.70;99.90;;;;;;5069656;28;20028;-80
2021/05/05 10:03:36;;;;;;;0.00;0.00;;;21.30;99.90;;;;;;5069376;28;20347;-81
2021/05/05 10:06:23;;;;;;;0.38;0.20;;;22.70;99.90;;;;;;5069233;28;20085;-81
2021/05/05 10:08:56;;;;;;;0.10;0.10;;;24.00;99.90;;;;;;5069280;28;20048;-81
2021/05/05 10:11:25;;;;;;;0.32;0.32;;;24.60;99.90;;;;;;5069581;28;20039;-81
2021/05/05 10:13:54;;;;;;;0.00;0.00;;;26.10;99.90;;;;;;5068028;28;20025;-81
2021/05/05 10:16:21;;;;;;;0.20;0.20;;;23.40;99.90;;;;;;5069638;28;20032;-81
2021/05/05 10:18:48;;;;;;;0.00;0.00;;;24.50;99.90;;;;;;5068921;28;20028;-81
2021/05/05 10:21:18;;;;;;;0.17;0.10;;;24.60;99.90;;;;;;5068130;28;20093;-80
2021/05/05 10:23:49;;;;;;;0.00;0.00;;;23.00;99.90;;;;;;5063777;28;20029;-81
2021/05/05 10:26:18;;;;;;;1.17;0.30;;;26.50;99.90;;;;;;5056996;28;20039;-81
2021/05/05 10:28:45;;;;;;;1.08;0.30;;;25.90;99.90;;;;;;5050015;28;20104;-81
2021/05/05 10:31:23;;;;;;;0.00;0.00;;;24.00;99.90;;;;;;5047685;28;20060;-80
2021/05/05 10:33:52;;;;;;;0.00;0.00;;;24.90;99.90;;;;;;5047955;28;20481;-81
2021/05/05 10:36:38;;;;;;;0.28;0.20;;;26.00;99.90;;;;;;5063125;28;20017;-81
2021/05/05 10:39:20;;;;;;;0.20;0.20;;;23.70;99.90;;;;;;5052665;28;20663;-80
2021/05/05 10:41:58;;;;;;;0.00;0.00;;;25.70;99.90;;;;;;5047870;28;20027;-80
2021/05/05 10:44:46;;;;;;;0.32;0.10;;;26.00;99.90;;;;;;5059198;28;20909;-80
2021/05/05 10:47:35;;;;;;;0.08;0.08;;;24.40;99.90;;;;;;5055997;28;20017;-80
2021/05/05 10:50:05;;;;;;;0.00;0.00;;;21.80;99.90;;;;;;5047178;28;20554;-80
2021/05/05 10:52:34;;;;;;;0.10;0.10;;;23.70;99.90;;;;;;5045786;28;20017;-80
2021/05/05 10:55:03;;;;;;;0.10;0.10;;;21.90;99.90;;;;;;5047144;28;20017;-81
2021/05/05 10:57:30;;;;;;;0.45;0.45;;;22.50;99.90;;;;;;5047103;28;20021;-80
2021/05/05 11:00:06;;;;;;;0.05;0.05;;;23.40;99.90;;;;;;5048630;28;20056;-80
2021/05/05 11:02:46;;;;;;;0.00;0.00;;;18.80;99.90;;;;;;5047170;28;20039;-80
2021/05/05 11:05:19;;;;;;;0.03;0.03;;;23.30;99.90;;;;;;5065961;28;20062;-80
2021/05/05 11:07:55;;;;;;;0.32;0.32;;;25.50;99.90;;;;;;5046485;28;20131;-80
2021/05/05 11:10:36;;;;;;;0.10;0.10;;;23.90;99.90;;;;;;5048950;28;20489;-80
2021/05/05 11:13:24;;;;;;;0.10;0.10;;;19.10;99.90;;;;;;5052112;28;20021;-80
2021/05/05 11:15:55;;;;;;;0.05;0.05;;;16.30;99.90;;;;;;5065653;28;20023;-80
2021/05/05 11:18:27;;;;;;;0.00;0.00;;;22.90;99.90;;;;;;5066836;28;20020;-80
2021/05/05 11:20:56;;;;;;;0.00;0.00;;;23.50;99.90;;;;;;5066953;28;20016;-80
2021/05/05 11:26:21;;;;;;;0.10;0.10;;;23.60;99.90;;;;;;5061782;28;20036;-81
2021/05/05 11:29:00;;;;;;;0.10;0.10;;;20.70;99.90;;;;;;5054360;28;20437;-81
2021/05/05 11:31:47;;;;;;;0.35;0.35;;;19.20;99.90;;;;;;5062843;28;20023;-80
2021/05/05 11:34:23;;;;;;;0.35;0.25;;;17.30;99.90;;;;;;5053634;28;20025;-81
2021/05/05 11:36:58;;;;;;;0.10;0.10;;;16.70;99.90;;;;;;5049465;28;20024;-81
2021/05/05 11:39:27;;;;;;;0.20;0.20;;;17.30;99.90;;;;;;5053482;28;20498;-83
2021/05/05 11:41:53;;;;;;;0.10;0.10;;;16.70;99.90;;;;;;5048126;28;20708;-81
2021/05/05 11:44:49;;;;;;;0.03;0.03;;;17.10;99.90;;;;;;5053341;28;20028;-80
2021/05/05 11:47:20;;;;;;;0.30;0.30;;;16.60;99.90;;;;;;5060200;28;20052;-79
2021/05/05 11:50:07;;;;;;;0.03;0.03;;;17.10;99.90;;;;;;5047532;28;20029;-80
2021/05/05 11:52:44;;;;;;;0.00;0.00;;;16.50;99.90;;;;;;5052643;28;20028;-80
2021/05/05 11:55:10;;;;;;;0.25;0.25;;;16.30;99.90;;;;;;5058149;28;20020;-80
2021/05/05 11:58:06;;;;;;;0.32;0.32;;;16.60;99.90;;;;;;5054935;28;20021;-80
2021/05/05 12:00:36;;;;;;;;;;;16.50;99.90;;;;;;5055527;28;20509;-80
2021/05/05 12:03:08;;;;;;;0.10;0.10;;;16.70;99.90;;;;;;5061707;28;19908;-80
2021/05/05 12:05:43;;;;;;;0.10;0.10;;;16.80;99.90;;;;;;5049870;28;20025;-80
2021/05/05 12:08:15;;;;;;;0.77;0.77;;;16.70;99.90;;;;;;5048872;28;21173;-80
2021/05/05 12:10:41;;;;;;;0.10;0.10;;;16.60;99.90;;;;;;5048330;28;20024;-80
2021/05/05 12:13:29;;;;;;;0.10;0.10;;;16.40;99.90;;;;;;5048750;28;20033;-80
2021/05/05 12:16:17;;;;;;;0.10;0.10;;;16.60;99.90;;;;;;5045929;28;20550;-80
2021/05/05 12:18:46;;;;;;;0.10;0.10;;;16.80;99.90;;;;;;5058673;28;20039;-80
2021/05/05 12:21:18;;;;;;;0.68;0.40;;;17.20;99.90;;;;;;5055312;28;20107;-80
2021/05/05 12:23:52;;;;;;;0.10;0.10;;;16.80;99.90;;;;;;5049827;28;20033;-79
2021/05/05 12:26:20;;;;;;;2.35;1.02;;;17.00;99.90;;;;;;5069677;28;20103;-80
2021/05/05 12:28:51;;;;;;;0.00;0.00;;;16.30;99.90;;;;;;5064305;28;20202;-80
2021/05/05 12:31:26;;;;;;;0.75;0.38;;;16.90;99.90;;;;;;5060739;28;20029;-79
2021/05/05 12:33:52;;;;;;;0.28;0.28;;;16.60;99.90;;;;;;5055664;28;20020;-80
2021/05/05 12:36:24;;;;;;;0.08;0.08;;;16.30;99.90;;;;;;5059706;28;20040;-80
2021/05/05 12:38:55;;;;;;;0.10;0.10;;;16.40;99.90;;;;;;5053099;28;20105;-80
2021/05/05 12:41:24;;;;;;;0.00;0.00;;;15.90;99.90;;;;;;5064760;28;20028;-80
2021/05/05 12:43:51;;;;;;;0.13;0.13;;;15.50;99.90;;;;;;5062279;28;20029;-80
2021/05/05 12:46:24;;;;;;;0.10;0.10;;;16.00;99.90;;;;;;5059254;28;20116;-80
2021/05/05 12:48:53;;;;;;;0.22;0.20;;;16.00;99.90;;;;;;5058656;28;20511;-80
2021/05/05 12:51:22;;;;;;;0.10;0.10;;;16.30;99.90;;;;;;5070296;28;20073;-80
2021/05/05 12:53:52;;;;;;;0.10;0.10;;;16.50;99.90;;;;;;5064721;28;20016;-80
2021/05/05 12:56:21;;;;;;;0.00;0.00;;;16.90;99.90;;;;;;5062975;28;20577;-80
2021/05/05 12:58:49;;;;;;;0.20;0.20;;;16.10;99.90;;;;;;5067302;28;20024;-80
2021/05/05 13:01:15;;;;;;;0.00;0.00;;;15.80;99.90;;;;;;5059560;28;20029;-80
2021/05/05 13:03:45;;;;;;;0.10;0.10;;;15.50;99.90;;;;;;5054404;28;20021;-80
2021/05/05 13:06:14;;;;;;;0.03;0.03;;;16.30;99.90;;;;;;5057185;28;20028;-80
2021/05/05 13:08:56;;;;;;;0.25;0.25;;;16.40;99.90;;;;;;5053169;28;20041;-80